sensor_id;sensor_type;location;lat;lon;timestamp;pressure;altitude;pressure_sealevel;temperature;humidity
10852;BME280;5479;52.046;6.314;2023-03-22T00:00:26;100866.47;;;10.27;100.00
10852;BME280;5479;52.046;6.314;2023-03-22T00:02:55;100860.22;;;10.28;100.00
10852;BME280;5479;52.046;6.314;2023-03-22T00:05:23;100862.09;;;10.26;100.00
10852;BME280;5479;52.046;6.314;2023-03-22T00:07:51;100862.84;;;10.28;100.00
10852;BME280;5479;52.046;6.314;2023-03-22T00:10:23;100858.75;;;10.22;100.00
10852;BME280;5479;52.046;6.314;2023-03-22T00:12:54;100860.22;;;10.28;100.00
10852;BME280;5479;52.046;6.314;2023-03-22T00:15:22;100865.44;;;10.29;100.00
10852;BME280;5479;52.046;6.314;2023-03-22T00:17:50;100867.84;;;10.18;100.00
10852;BME280;5479;52.046;6.314;2023-03-22T00:20:18;100867.66;;;10.21;100.00
10852;BME280;5479;52.046;6.314;2023-03-22T00:22:49;100853.56;;;10.21;100.00
10852;BME280;5479;52.046;6.314;2023-03-22T00:25:20;100850.16;;;10.19;100.00
10852;BME280;5479;52.046;6.314;2023-03-22T00:27:48;100849.53;;;10.14;100.00
10852;BME280;5479;52.046;6.314;2023-03-22T00:30:17;100850.41;;;10.14;100.00
10852;BME280;5479;52.046;6.314;2023-03-22T00:32:45;100856.19;;;10.05;100.00
10852;BME280;5479;52.046;6.314;2023-03-22T00:35:13;100852.97;;;10.00;100.00
10852;BME280;5479;52.046;6.314;2023-03-22T00:37:41;100854.16;;;9.95;100.00
10852;BME280;5479;52.046;6.314;2023-03-22T00:40:11;100849.97;;;9.91;100.00
10852;BME280;5479;52.046;6.314;2023-03-22T00:42:40;100848.88;;;9.95;100.00
10852;BME280;5479;52.046;6.314;2023-03-22T00:45:10;100846.06;;;9.98;100.00
10852;BME280;5479;52.046;6.314;2023-03-22T00:47:39;100853.78;;;10.01;100.00
10852;BME280;5479;52.046;6.314;2023-03-22T00:50:08;100843.41;;;9.98;100.00
10852;BME280;5479;52.046;6.314;2023-03-22T00:52:36;100847.56;;;10.02;100.00
10852;BME280;5479;52.046;6.314;2023-03-22T00:55:05;100850.22;;;10.02;100.00
10852;BME280;5479;52.046;6.314;2023-03-22T00:57:33;100844.66;;;9.91;100.00
10852;BME280;5479;52.046;6.314;2023-03-22T01:00:01;100839.22;;;9.94;100.00
10852;BME280;5479;52.046;6.314;2023-03-22T01:02:35;100833.16;;;9.92;100.00
10852;BME280;5479;52.046;6.314;2023-03-22T01:05:06;100818.97;;;9.93;100.00
10852;BME280;5479;52.046;6.314;2023-03-22T01:07:34;100822.41;;;9.95;100.00
10852;BME280;5479;52.046;6.314;2023-03-22T01:10:04;100821.88;;;10.04;100.00
10852;BME280;5479;52.046;6.314;2023-03-22T01:12:32;100815.72;;;10.03;100.00
10852;BME280;5479;52.046;6.314;2023-03-22T01:15:00;100814.69;;;10.06;100.00
10852;BME280;5479;52.046;6.314;2023-03-22T01:17:28;100813.34;;;9.99;100.00
10852;BME280;5479;52.046;6.314;2023-03-22T01:19:56;100807.03;;;10.01;100.00
10852;BME280;5479;52.046;6.314;2023-03-22T01:22:25;100813.03;;;9.89;100.00
10852;BME280;5479;52.046;6.314;2023-03-22T01:24:53;100809.78;;;9.84;100.00
10852;BME280;5479;52.046;6.314;2023-03-22T01:27:21;100807.53;;;9.77;100.00
10852;BME280;5479;52.046;6.314;2023-03-22T01:29:49;100809.25;;;9.78;100.00
10852;BME280;5479;52.046;6.314;2023-03-22T01:32:17;100795.28;;;9.76;100.00
10852;BME280;5479;52.046;6.314;2023-03-22T01:34:45;100784.69;;;9.76;100.00
10852;BME280;5479;52.046;6.314;2023-03-22T01:37:13;100786.75;;;9.70;100.00
10852;BME280;5479;52.046;6.314;2023-03-22T01:39:43;100784.88;;;9.57;100.00
10852;BME280;5479;52.046;6.314;2023-03-22T01:42:12;100785.19;;;9.51;100.00
10852;BME280;5479;52.046;6.314;2023-03-22T01:44:41;100775.75;;;9.47;100.00
10852;BME280;5479;52.046;6.314;2023-03-22T01:47:09;100773.00;;;9.48;100.00
10852;BME280;5479;52.046;6.314;2023-03-22T01:49:38;100764.16;;;9.49;100.00
10852;BME280;5479;52.046;6.314;2023-03-22T01:52:10;100756.13;;;9.51;100.00
10852;BME280;5479;52.046;6.314;2023-03-22T01:54:44;100756.03;;;9.52;100.00
10852;BME280;5479;52.046;6.314;2023-03-22T01:57:13;100746.31;;;9.53;100.00
10852;BME280;5479;52.046;6.314;2023-03-22T01:59:42;100742.72;;;9.69;100.00
10852;BME280;5479;52.046;6.314;2023-03-22T02:02:11;100745.03;;;9.76;100.00
10852;BME280;5479;52.046;6.314;2023-03-22T02:04:46;100737.75;;;9.79;100.00
10852;BME280;5479;52.046;6.314;2023-03-22T02:07:16;100726.69;;;9.73;100.00
10852;BME280;5479;52.046;6.314;2023-03-22T02:09:52;100723.28;;;9.70;100.00
10852;BME280;5479;52.046;6.314;2023-03-22T02:12:30;100718.19;;;9.67;100.00
10852;BME280;5479;52.046;6.314;2023-03-22T02:15:06;100711.84;;;9.70;100.00
10852;BME280;5479;52.046;6.314;2023-03-22T02:17:45;100714.56;;;9.68;100.00
10852;BME280;5479;52.046;6.314;2023-03-22T02:20:45;100704.78;;;9.70;100.00
10852;BME280;5479;52.046;6.314;2023-03-22T02:23:40;100702.31;;;9.67;100.00
10852;BME280;5479;52.046;6.314;2023-03-22T02:29:12;100700.25;;;9.73;100.00
10852;BME280;5479;52.046;6.314;2023-03-22T02:32:02;100692.31;;;9.73;100.00
10852;BME280;5479;52.046;6.314;2023-03-22T02:34:56;100692.72;;;9.81;100.00
10852;BME280;5479;52.046;6.314;2023-03-22T02:37:40;100683.66;;;9.85;100.00
10852;BME280;5479;52.046;6.314;2023-03-22T02:40:16;100684.88;;;9.95;100.00
10852;BME280;5479;52.046;6.314;2023-03-22T02:42:54;100675.16;;;10.09;100.00
10852;BME280;5479;52.046;6.314;2023-03-22T02:45:29;100673.38;;;10.10;100.00
10852;BME280;5479;52.046;6.314;2023-03-22T02:48:04;100668.78;;;10.13;100.00
10852;BME280;5479;52.046;6.314;2023-03-22T02:50:38;100678.97;;;10.19;100.00
10852;BME280;5479;52.046;6.314;2023-03-22T02:53:12;100673.03;;;10.16;100.00
10852;BME280;5479;52.046;6.314;2023-03-22T02:55:49;100671.16;;;10.18;100.00
10852;BME280;5479;52.046;6.314;2023-03-22T02:58:20;100668.91;;;10.26;100.00
10852;BME280;5479;52.046;6.314;2023-03-22T03:00:53;100664.72;;;10.22;100.00
10852;BME280;5479;52.046;6.314;2023-03-22T03:03:25;100660.22;;;10.24;100.00
10852;BME280;5479;52.046;6.314;2023-03-22T03:05:57;100660.03;;;10.27;100.00
10852;BME280;5479;52.046;6.314;2023-03-22T03:08:28;100656.81;;;10.36;100.00
10852;BME280;5479;52.046;6.314;2023-03-22T03:10:58;100650.59;;;10.37;100.00
10852;BME280;5479;52.046;6.314;2023-03-22T03:13:28;100654.34;;;10.33;100.00
10852;BME280;5479;52.046;6.314;2023-03-22T03:15:57;100648.00;;;10.36;100.00
10852;BME280;5479;52.046;6.314;2023-03-22T03:18:36;100638.38;;;10.35;100.00
10852;BME280;5479;52.046;6.314;2023-03-22T03:21:15;100639.03;;;10.38;100.00
10852;BME280;5479;52.046;6.314;2023-03-22T03:23:51;100636.38;;;10.38;100.00
10852;BME280;5479;52.046;6.314;2023-03-22T03:26:28;100631.38;;;10.34;100.00
10852;BME280;5479;52.046;6.314;2023-03-22T03:29:03;100632.81;;;10.39;100.00
10852;BME280;5479;52.046;6.314;2023-03-22T03:31:36;100622.03;;;10.42;100.00
10852;BME280;5479;52.046;6.314;2023-03-22T03:34:12;100627.34;;;10.42;100.00
10852;BME280;5479;52.046;6.314;2023-03-22T03:36:49;100636.38;;;10.38;100.00
10852;BME280;5479;52.046;6.314;2023-03-22T03:39:21;100615.03;;;10.41;100.00
10852;BME280;5479;52.046;6.314;2023-03-22T03:41:54;100629.22;;;10.40;100.00
10852;BME280;5479;52.046;6.314;2023-03-22T03:44:23;100623.94;;;10.40;100.00
10852;BME280;5479;52.046;6.314;2023-03-22T03:46:51;100631.00;;;10.40;100.00
10852;BME280;5479;52.046;6.314;2023-03-22T03:49:21;100628.84;;;10.32;100.00
10852;BME280;5479;52.046;6.314;2023-03-22T03:51:51;100624.13;;;10.37;100.00
10852;BME280;5479;52.046;6.314;2023-03-22T03:54:21;100636.59;;;10.35;100.00
10852;BME280;5479;52.046;6.314;2023-03-22T03:56:49;100622.59;;;10.33;100.00
10852;BME280;5479;52.046;6.314;2023-03-22T03:59:19;100623.63;;;10.30;100.00
10852;BME280;5479;52.046;6.314;2023-03-22T04:01:48;100611.25;;;10.31;100.00
10852;BME280;5479;52.046;6.314;2023-03-22T04:04:17;100612.78;;;10.35;100.00
10852;BME280;5479;52.046;6.314;2023-03-22T04:06:52;100619.47;;;10.41;100.00
10852;BME280;5479;52.046;6.314;2023-03-22T04:09:22;100624.69;;;10.42;100.00
10852;BME280;5479;52.046;6.314;2023-03-22T04:11:50;100630.72;;;10.44;100.00
10852;BME280;5479;52.046;6.314;2023-03-22T04:14:20;100627.16;;;10.45;100.00
10852;BME280;5479;52.046;6.314;2023-03-22T04:16:48;100619.94;;;10.47;100.00
10852;BME280;5479;52.046;6.314;2023-03-22T04:19:17;100619.19;;;10.45;100.00
10852;BME280;5479;52.046;6.314;2023-03-22T04:21:45;100618.47;;;10.43;100.00
10852;BME280;5479;52.046;6.314;2023-03-22T04:24:14;100617.78;;;10.40;100.00
10852;BME280;5479;52.046;6.314;2023-03-22T04:26:42;100624.88;;;10.39;100.00
10852;BME280;5479;52.046;6.314;2023-03-22T04:29:10;100622.41;;;10.36;100.00
10852;BME280;5479;52.046;6.314;2023-03-22T04:31:39;100617.41;;;10.32;100.00
10852;BME280;5479;52.046;6.314;2023-03-22T04:34:08;100619.38;;;10.28;100.00
10852;BME280;5479;52.046;6.314;2023-03-22T04:36:36;100612.75;;;10.21;100.00
10852;BME280;5479;52.046;6.314;2023-03-22T04:39:08;100609.25;;;10.20;100.00
10852;BME280;5479;52.046;6.314;2023-03-22T04:41:36;100616.34;;;10.20;100.00
10852;BME280;5479;52.046;6.314;2023-03-22T04:44:05;100615.78;;;10.15;100.00
10852;BME280;5479;52.046;6.314;2023-03-22T04:46:34;100608.69;;;10.15;100.00
10852;BME280;5479;52.046;6.314;2023-03-22T04:49:05;100614.38;;;10.23;100.00
10852;BME280;5479;52.046;6.314;2023-03-22T04:51:33;100603.97;;;10.20;100.00
10852;BME280;5479;52.046;6.314;2023-03-22T04:54:01;100607.66;;;10.18;100.00
10852;BME280;5479;52.046;6.314;2023-03-22T04:56:29;100603.03;;;10.21;100.00
10852;BME280;5479;52.046;6.314;2023-03-22T04:58:57;100607.94;;;10.13;100.00
10852;BME280;5479;52.046;6.314;2023-03-22T05:01:25;100610.06;;;10.07;100.00
10852;BME280;5479;52.046;6.314;2023-03-22T05:03:52;100606.66;;;10.05;100.00
10852;BME280;5479;52.046;6.314;2023-03-22T05:06:22;100603.63;;;9.97;100.00
10852;BME280;5479;52.046;6.314;2023-03-22T05:08:50;100591.59;;;9.91;100.00
10852;BME280;5479;52.046;6.314;2023-03-22T05:11:17;100592.72;;;9.87;100.00
10852;BME280;5479;52.046;6.314;2023-03-22T05:13:46;100597.53;;;9.81;100.00
10852;BME280;5479;52.046;6.314;2023-03-22T05:16:14;100602.66;;;9.84;100.00
10852;BME280;5479;52.046;6.314;2023-03-22T05:18:42;100592.72;;;9.87;100.00
10852;BME280;5479;52.046;6.314;2023-03-22T05:21:14;100596.59;;;9.82;100.00
10852;BME280;5479;52.046;6.314;2023-03-22T05:23:44;100581.56;;;9.82;100.00
10852;BME280;5479;52.046;6.314;2023-03-22T05:26:13;100588.56;;;9.83;100.00
10852;BME280;5479;52.046;6.314;2023-03-22T05:28:41;100585.25;;;9.80;100.00
10852;BME280;5479;52.046;6.314;2023-03-22T05:31:09;100589.03;;;9.76;100.00
10852;BME280;5479;52.046;6.314;2023-03-22T05:33:40;100576.44;;;9.79;100.00
10852;BME280;5479;52.046;6.314;2023-03-22T05:36:09;100577.31;;;9.80;100.00
10852;BME280;5479;52.046;6.314;2023-03-22T05:38:38;100579.78;;;9.83;100.00
10852;BME280;5479;52.046;6.314;2023-03-22T05:41:08;100578.84;;;9.84;100.00
10852;BME280;5479;52.046;6.314;2023-03-22T05:43:36;100575.84;;;9.90;100.00
10852;BME280;5479;52.046;6.314;2023-03-22T05:46:05;100579.13;;;9.93;100.00
10852;BME280;5479;52.046;6.314;2023-03-22T05:48:34;100578.88;;;9.98;100.00
10852;BME280;5479;52.046;6.314;2023-03-22T05:51:05;100573.00;;;10.07;100.00
10852;BME280;5479;52.046;6.314;2023-03-22T05:53:33;100570.28;;;10.08;100.00
10852;BME280;5479;52.046;6.314;2023-03-22T05:56:01;100570.94;;;10.12;100.00
10852;BME280;5479;52.046;6.314;2023-03-22T05:58:31;100574.34;;;10.14;100.00
10852;BME280;5479;52.046;6.314;2023-03-22T06:01:05;100574.19;;;10.17;100.00
10852;BME280;5479;52.046;6.314;2023-03-22T06:03:33;100577.78;;;10.16;100.00
10852;BME280;5479;52.046;6.314;2023-03-22T06:06:01;100576.81;;;10.17;100.00
10852;BME280;5479;52.046;6.314;2023-03-22T06:08:32;100575.16;;;10.16;100.00
10852;BME280;5479;52.046;6.314;2023-03-22T06:11:00;100567.38;;;10.13;100.00
10852;BME280;5479;52.046;6.314;2023-03-22T06:13:28;100574.53;;;10.11;100.00
10852;BME280;5479;52.046;6.314;2023-03-22T06:16:00;100573.44;;;10.15;100.00
10852;BME280;5479;52.046;6.314;2023-03-22T06:18:29;100574.53;;;10.11;100.00
10852;BME280;5479;52.046;6.314;2023-03-22T06:20:58;100569.44;;;10.08;100.00
10852;BME280;5479;52.046;6.314;2023-03-22T06:23:26;100582.41;;;10.12;100.00
10852;BME280;5479;52.046;6.314;2023-03-22T06:25:54;100569.50;;;10.06;100.00
10852;BME280;5479;52.046;6.314;2023-03-22T06:28:22;100568.13;;;10.15;100.00
10852;BME280;5479;52.046;6.314;2023-03-22T06:30:55;100575.31;;;10.13;100.00
10852;BME280;5479;52.046;6.314;2023-03-22T06:33:24;100571.28;;;10.21;100.00
10852;BME280;5479;52.046;6.314;2023-03-22T06:35:52;100573.63;;;10.26;100.00
10852;BME280;5479;52.046;6.314;2023-03-22T06:38:20;100573.63;;;10.26;100.00
10852;BME280;5479;52.046;6.314;2023-03-22T06:40:48;100572.69;;;10.27;100.00
10852;BME280;5479;52.046;6.314;2023-03-22T06:43:16;100571.72;;;10.28;100.00
10852;BME280;5479;52.046;6.314;2023-03-22T06:45:44;100571.25;;;10.36;100.00
10852;BME280;5479;52.046;6.314;2023-03-22T06:48:12;100569.84;;;10.30;100.00
10852;BME280;5479;52.046;6.314;2023-03-22T06:50:43;100562.28;;;10.38;100.00
10852;BME280;5479;52.046;6.314;2023-03-22T06:53:11;100569.47;;;10.36;100.00
10852;BME280;5479;52.046;6.314;2023-03-22T06:55:39;100568.25;;;10.42;100.00
10852;BME280;5479;52.046;6.314;2023-03-22T06:58:07;100556.03;;;10.53;100.00
10852;BME280;5479;52.046;6.314;2023-03-22T07:00:35;100557.88;;;10.79;100.00
10852;BME280;5479;52.046;6.314;2023-03-22T07:03:04;100559.88;;;11.03;100.00
10852;BME280;5479;52.046;6.314;2023-03-22T07:05:32;100559.31;;;11.12;100.00
10852;BME280;5479;52.046;6.314;2023-03-22T07:08:01;100559.06;;;11.68;100.00
10852;BME280;5479;52.046;6.314;2023-03-22T07:10:29;100560.53;;;12.60;100.00
10852;BME280;5479;52.046;6.314;2023-03-22T07:12:57;100551.53;;;12.99;100.00
10852;BME280;5479;52.046;6.314;2023-03-22T07:15:25;100543.00;;;13.30;100.00
10852;BME280;5479;52.046;6.314;2023-03-22T07:17:53;100547.59;;;12.92;100.00
10852;BME280;5479;52.046;6.314;2023-03-22T07:20:21;100548.34;;;12.58;100.00
10852;BME280;5479;52.046;6.314;2023-03-22T07:22:49;100556.66;;;12.28;100.00
10852;BME280;5479;52.046;6.314;2023-03-22T07:25:18;100551.47;;;12.27;100.00
10852;BME280;5479;52.046;6.314;2023-03-22T07:27:46;100549.34;;;12.06;100.00
10852;BME280;5479;52.046;6.314;2023-03-22T07:30:14;100548.72;;;12.03;100.00
10852;BME280;5479;52.046;6.314;2023-03-22T07:32:42;100550.63;;;12.01;100.00
10852;BME280;5479;52.046;6.314;2023-03-22T07:35:11;100552.84;;;11.94;100.00
10852;BME280;5479;52.046;6.314;2023-03-22T07:37:39;100553.16;;;12.02;100.00
10852;BME280;5479;52.046;6.314;2023-03-22T07:40:09;100555.53;;;12.20;100.00
10852;BME280;5479;52.046;6.314;2023-03-22T07:42:38;100547.63;;;12.31;100.00
10852;BME280;5479;52.046;6.314;2023-03-22T07:45:06;100551.34;;;12.41;100.00
10852;BME280;5479;52.046;6.314;2023-03-22T07:47:34;100559.97;;;12.32;100.00
10852;BME280;5479;52.046;6.314;2023-03-22T07:50:03;100554.84;;;12.29;100.00
10852;BME280;5479;52.046;6.314;2023-03-22T07:52:30;100557.50;;;12.29;100.00
10852;BME280;5479;52.046;6.314;2023-03-22T07:54:59;100553.38;;;12.37;100.00
10852;BME280;5479;52.046;6.314;2023-03-22T07:57:26;100559.63;;;12.24;100.00
10852;BME280;5479;52.046;6.314;2023-03-22T07:59:56;100552.53;;;12.12;100.00
10852;BME280;5479;52.046;6.314;2023-03-22T08:02:24;100550.41;;;12.04;100.00
10852;BME280;5479;52.046;6.314;2023-03-22T08:04:52;100551.03;;;12.07;100.00
10852;BME280;5479;52.046;6.314;2023-03-22T08:07:20;100545.53;;;12.10;100.00
10852;BME280;5479;52.046;6.314;2023-03-22T08:09:50;100544.69;;;11.97;100.00
10852;BME280;5479;52.046;6.314;2023-03-22T08:12:18;100552.72;;;11.96;100.00
10852;BME280;5479;52.046;6.314;2023-03-22T08:14:46;100557.72;;;12.26;100.00
10852;BME280;5479;52.046;6.314;2023-03-22T08:17:17;100547.09;;;12.51;100.00
10852;BME280;5479;52.046;6.314;2023-03-22T08:19:45;100552.88;;;12.68;100.00
10852;BME280;5479;52.046;6.314;2023-03-22T08:22:13;100554.31;;;12.85;100.00
10852;BME280;5479;52.046;6.314;2023-03-22T08:24:41;100549.44;;;12.79;100.00
10852;BME280;5479;52.046;6.314;2023-03-22T08:27:09;100553.94;;;12.79;100.00
10852;BME280;5479;52.046;6.314;2023-03-22T08:29:37;100552.88;;;12.81;100.00
10852;BME280;5479;52.046;6.314;2023-03-22T08:32:06;100559.31;;;12.90;100.00
10852;BME280;5479;52.046;6.314;2023-03-22T08:34:37;100542.81;;;12.97;100.00
10852;BME280;5479;52.046;6.314;2023-03-22T08:37:06;100562.91;;;12.65;100.00
10852;BME280;5479;52.046;6.314;2023-03-22T08:39:34;100557.25;;;12.69;100.00
10852;BME280;5479;52.046;6.314;2023-03-22T08:42:02;100562.44;;;12.71;100.00
10852;BME280;5479;52.046;6.314;2023-03-22T08:44:31;100565.69;;;12.87;100.00
10852;BME280;5479;52.046;6.314;2023-03-22T08:46:59;100560.94;;;12.80;100.00
10852;BME280;5479;52.046;6.314;2023-03-22T08:49:26;100561.66;;;12.82;100.00
10852;BME280;5479;52.046;6.314;2023-03-22T08:51:56;100556.47;;;12.80;100.00
10852;BME280;5479;52.046;6.314;2023-03-22T08:54:24;100547.72;;;12.91;100.00
10852;BME280;5479;52.046;6.314;2023-03-22T08:56:53;100549.84;;;13.22;100.00
10852;BME280;5479;52.046;6.314;2023-03-22T08:59:21;100540.00;;;13.35;100.00
10852;BME280;5479;52.046;6.314;2023-03-22T09:01:49;100554.16;;;13.36;100.00
10852;BME280;5479;52.046;6.314;2023-03-22T09:04:23;100530.94;;;13.38;100.00
10852;BME280;5479;52.046;6.314;2023-03-22T09:06:51;100545.91;;;13.62;100.00
10852;BME280;5479;52.046;6.314;2023-03-22T09:09:21;100540.59;;;13.62;100.00
10852;BME280;5479;52.046;6.314;2023-03-22T09:11:48;100542.44;;;13.73;100.00
10852;BME280;5479;52.046;6.314;2023-03-22T09:14:16;100541.00;;;13.91;100.00
10852;BME280;5479;52.046;6.314;2023-03-22T09:16:44;100538.34;;;13.80;100.00
10852;BME280;5479;52.046;6.314;2023-03-22T09:19:12;100536.72;;;14.12;100.00
10852;BME280;5479;52.046;6.314;2023-03-22T09:21:40;100533.69;;;14.28;100.00
10852;BME280;5479;52.046;6.314;2023-03-22T09:24:08;100524.03;;;14.38;100.00
10852;BME280;5479;52.046;6.314;2023-03-22T09:26:37;100528.50;;;14.48;100.00
10852;BME280;5479;52.046;6.314;2023-03-22T09:29:05;100538.41;;;14.24;100.00
10852;BME280;5479;52.046;6.314;2023-03-22T09:31:33;100530.69;;;14.55;100.00
10852;BME280;5479;52.046;6.314;2023-03-22T09:34:01;100524.66;;;14.95;100.00
10852;BME280;5479;52.046;6.314;2023-03-22T09:36:29;100533.69;;;15.26;100.00
10852;BME280;5479;52.046;6.314;2023-03-22T09:38:57;100531.97;;;15.25;100.00
10852;BME280;5479;52.046;6.314;2023-03-22T09:41:29;100519.53;;;15.15;100.00
10852;BME280;5479;52.046;6.314;2023-03-22T09:44:05;100527.25;;;14.75;100.00
10852;BME280;5479;52.046;6.314;2023-03-22T09:46:38;100521.53;;;14.90;100.00
10852;BME280;5479;52.046;6.314;2023-03-22T09:49:12;100520.84;;;14.66;100.00
10852;BME280;5479;52.046;6.314;2023-03-22T09:51:42;100519.91;;;14.45;100.00
10852;BME280;5479;52.046;6.314;2023-03-22T09:54:13;100531.28;;;14.58;100.00
10852;BME280;5479;52.046;6.314;2023-03-22T09:56:44;100533.38;;;14.55;100.00
10852;BME280;5479;52.046;6.314;2023-03-22T09:59:22;100526.81;;;14.47;100.00
10852;BME280;5479;52.046;6.314;2023-03-22T10:01:57;100538.88;;;14.18;100.00
10852;BME280;5479;52.046;6.314;2023-03-22T10:04:39;100535.25;;;14.19;100.00
10852;BME280;5479;52.046;6.314;2023-03-22T10:07:17;100508.16;;;14.14;100.00
10852;BME280;5479;52.046;6.314;2023-03-22T10:09:58;100524.13;;;14.14;100.00
10852;BME280;5479;52.046;6.314;2023-03-22T10:12:33;100525.53;;;14.07;100.00
10852;BME280;5479;52.046;6.314;2023-03-22T10:15:10;100528.28;;;13.83;100.00
10852;BME280;5479;52.046;6.314;2023-03-22T10:17:42;100521.53;;;13.79;100.00
10852;BME280;5479;52.046;6.314;2023-03-22T10:20:21;100530.22;;;13.70;100.00
10852;BME280;5479;52.046;6.314;2023-03-22T10:22:51;100532.28;;;13.67;100.00
10852;BME280;5479;52.046;6.314;2023-03-22T10:25:23;100517.72;;;13.60;100.00
10852;BME280;5479;52.046;6.314;2023-03-22T10:27:54;100519.97;;;13.42;100.00
10852;BME280;5479;52.046;6.314;2023-03-22T10:30:25;100521.91;;;13.51;100.00
10852;BME280;5479;52.046;6.314;2023-03-22T10:32:58;100518.84;;;13.34;100.00
10852;BME280;5479;52.046;6.314;2023-03-22T10:35:27;100520.22;;;13.15;100.00
10852;BME280;5479;52.046;6.314;2023-03-22T10:37:57;100525.13;;;13.09;100.00
10852;BME280;5479;52.046;6.314;2023-03-22T10:40:29;100536.50;;;13.11;100.00
10852;BME280;5479;52.046;6.314;2023-03-22T10:43:01;100529.38;;;13.11;100.00
10852;BME280;5479;52.046;6.314;2023-03-22T10:45:33;100523.16;;;13.23;100.00
10852;BME280;5479;52.046;6.314;2023-03-22T10:48:06;100533.41;;;13.17;100.00
10852;BME280;5479;52.046;6.314;2023-03-22T10:50:40;100523.34;;;13.09;100.00
10852;BME280;5479;52.046;6.314;2023-03-22T10:53:13;100533.69;;;12.89;100.00
10852;BME280;5479;52.046;6.314;2023-03-22T10:55:43;100539.16;;;12.75;100.00
10852;BME280;5479;52.046;6.314;2023-03-22T10:58:13;100546.66;;;12.57;100.00
10852;BME280;5479;52.046;6.314;2023-03-22T11:00:47;100538.47;;;12.47;100.00
10852;BME280;5479;52.046;6.314;2023-03-22T11:03:25;100544.25;;;12.29;100.00
10852;BME280;5479;52.046;6.314;2023-03-22T11:05:59;100544.59;;;12.12;100.00
10852;BME280;5479;52.046;6.314;2023-03-22T11:08:27;100542.75;;;12.12;100.00
10852;BME280;5479;52.046;6.314;2023-03-22T11:10:55;100551.47;;;12.01;100.00
10852;BME280;5479;52.046;6.314;2023-03-22T11:13:25;100553.78;;;11.93;100.00
10852;BME280;5479;52.046;6.314;2023-03-22T11:16:00;100555.28;;;11.85;100.00
10852;BME280;5479;52.046;6.314;2023-03-22T11:18:30;100551.13;;;11.93;100.00
10852;BME280;5479;52.046;6.314;2023-03-22T11:21:03;100549.78;;;12.00;100.00
10852;BME280;5479;52.046;6.314;2023-03-22T11:23:33;100549.13;;;11.97;100.00
10852;BME280;5479;52.046;6.314;2023-03-22T11:26:09;100545.94;;;12.04;100.00
10852;BME280;5479;52.046;6.314;2023-03-22T11:28:41;100560.06;;;12.18;100.00
10852;BME280;5479;52.046;6.314;2023-03-22T11:31:14;100553.63;;;12.09;100.00
10852;BME280;5479;52.046;6.314;2023-03-22T11:33:54;100552.53;;;11.99;100.00
10852;BME280;5479;52.046;6.314;2023-03-22T11:36:23;100554.66;;;12.06;100.00
10852;BME280;5479;52.046;6.314;2023-03-22T11:38:56;100551.38;;;12.16;100.00
10852;BME280;5479;52.046;6.314;2023-03-22T11:41:26;100549.97;;;12.23;100.00
10852;BME280;5479;52.046;6.314;2023-03-22T11:43:55;100552.41;;;12.26;100.00
10852;BME280;5479;52.046;6.314;2023-03-22T11:46:25;100551.28;;;12.17;100.00
10852;BME280;5479;52.046;6.314;2023-03-22T11:48:57;100550.19;;;12.32;100.00
10852;BME280;5479;52.046;6.314;2023-03-22T11:51:28;100541.88;;;12.37;100.00
10852;BME280;5479;52.046;6.314;2023-03-22T11:54:03;100543.06;;;12.45;100.00
10852;BME280;5479;52.046;6.314;2023-03-22T11:56:31;100545.50;;;12.48;100.00
10852;BME280;5479;52.046;6.314;2023-03-22T11:59:04;100550.38;;;12.42;100.00
10852;BME280;5479;52.046;6.314;2023-03-22T12:01:38;100535.22;;;12.44;100.00
10852;BME280;5479;52.046;6.314;2023-03-22T12:04:13;100549.78;;;12.38;100.00
10852;BME280;5479;52.046;6.314;2023-03-22T12:06:42;100538.06;;;12.28;100.00
10852;BME280;5479;52.046;6.314;2023-03-22T12:09:18;100551.28;;;12.17;100.00
10852;BME280;5479;52.046;6.314;2023-03-22T12:11:50;100548.59;;;12.30;100.00
10852;BME280;5479;52.046;6.314;2023-03-22T12:14:22;100548.94;;;12.25;100.00
10852;BME280;5479;52.046;6.314;2023-03-22T12:16:57;100536.47;;;12.26;100.00
10852;BME280;5479;52.046;6.314;2023-03-22T12:19:42;100534.44;;;12.42;100.00
10852;BME280;5479;52.046;6.314;2023-03-22T12:22:16;100535.94;;;12.46;100.00
10852;BME280;5479;52.046;6.314;2023-03-22T12:24:45;100526.78;;;12.50;100.00
10852;BME280;5479;52.046;6.314;2023-03-22T12:27:16;100528.06;;;12.57;100.00
10852;BME280;5479;52.046;6.314;2023-03-22T12:29:50;100522.50;;;12.60;100.00
10852;BME280;5479;52.046;6.314;2023-03-22T12:32:24;100505.28;;;12.65;100.00
10852;BME280;5479;52.046;6.314;2023-03-22T12:34:54;100510.53;;;12.54;100.00
10852;BME280;5479;52.046;6.314;2023-03-22T12:37:26;100515.50;;;12.59;100.00
10852;BME280;5479;52.046;6.314;2023-03-22T12:39:57;100521.34;;;12.64;100.00
10852;BME280;5479;52.046;6.314;2023-03-22T12:42:31;100518.69;;;12.64;100.00
10852;BME280;5479;52.046;6.314;2023-03-22T12:45:05;100518.03;;;12.73;100.00
10852;BME280;5479;52.046;6.314;2023-03-22T12:47:40;100515.88;;;12.78;100.00
10852;BME280;5479;52.046;6.314;2023-03-22T12:50:12;100513.44;;;12.75;100.00
10852;BME280;5479;52.046;6.314;2023-03-22T12:52:44;100520.78;;;12.71;100.00
10852;BME280;5479;52.046;6.314;2023-03-22T12:55:20;100526.66;;;12.64;100.00
10852;BME280;5479;52.046;6.314;2023-03-22T12:57:49;100529.13;;;12.54;100.00
10852;BME280;5479;52.046;6.314;2023-03-22T13:00:21;100535.47;;;12.64;100.00
10852;BME280;5479;52.046;6.314;2023-03-22T13:02:58;100533.38;;;12.57;100.00
10852;BME280;5479;52.046;6.314;2023-03-22T13:05:28;100527.63;;;12.50;100.00
10852;BME280;5479;52.046;6.314;2023-03-22T13:07:58;100530.28;;;12.50;100.00
10852;BME280;5479;52.046;6.314;2023-03-22T13:10:56;100529.56;;;12.48;100.00
10852;BME280;5479;52.046;6.314;2023-03-22T13:13:42;100533.28;;;12.46;100.00